createdAt,value
2015-04-27T00:00:08.724Z,24.2
2015-04-27T00:00:27.114Z,24.2
2015-04-27T00:00:45.552Z,24.2
2015-04-27T00:01:04.145Z,24.2
2015-04-27T00:01:22.819Z,24.2
2015-04-27T00:01:41.351Z,24.2
2015-04-27T00:01:59.913Z,24.2
2015-04-27T00:02:18.307Z,24.2
2015-04-27T00:02:36.682Z,24.2
2015-04-27T00:02:55.260Z,24.2
2015-04-27T00:03:13.775Z,24.2
2015-04-27T00:03:32.200Z,24.2
2015-04-27T00:03:50.794Z,24.1
2015-04-27T00:04:09.216Z,24.1
2015-04-27T00:04:27.640Z,24.1
2015-04-27T00:04:46.187Z,24.1
2015-04-27T00:05:04.718Z,24.1
2015-04-27T00:05:23.143Z,24.1
2015-04-27T00:05:41.533Z,24.1
2015-04-27T00:06:00.002Z,24.1
2015-04-27T00:06:18.549Z,24.1
2015-04-27T00:06:37.050Z,24.1
2015-04-27T00:06:55.613Z,24.1
2015-04-27T00:07:14.159Z,24.1
2015-04-27T00:07:32.553Z,24.1
2015-04-27T00:07:50.991Z,24.1
2015-04-27T00:08:09.537Z,24.1
2015-04-27T00:08:28.133Z,24.1
2015-04-27T00:08:46.711Z,24.1
2015-04-27T00:09:05.149Z,24.1
2015-04-27T00:09:24.055Z,24.1
2015-04-27T00:09:42.745Z,24.1
2015-04-27T00:10:01.291Z,24.1
2015-04-27T00:10:19.682Z,24.1
2015-04-27T00:10:38.544Z,24.1
2015-04-27T00:10:57.044Z,24.1
2015-04-27T00:11:15.466Z,24.1
2015-04-27T00:11:34.326Z,24
2015-04-27T00:11:52.938Z,24.1
2015-04-27T00:12:11.485Z,24.1
2015-04-27T00:12:30.110Z,24
2015-04-27T00:12:48.628Z,24
2015-04-27T00:13:07.253Z,24
2015-04-27T00:13:25.831Z,24.1
2015-04-27T00:13:44.424Z,24.1
2015-04-27T00:14:03.068Z,24
2015-04-27T00:14:21.771Z,24.1
2015-04-27T00:14:40.646Z,24.1
2015-04-27T00:14:59.273Z,24.1
2015-04-27T00:15:18.179Z,24
2015-04-27T00:15:36.976Z,24
2015-04-27T00:15:55.666Z,24
2015-04-27T00:16:14.260Z,24
2015-04-27T00:16:32.728Z,24
2015-04-27T00:16:51.166Z,24
2015-04-27T00:17:09.683Z,24
2015-04-27T00:17:28.527Z,24
2015-04-27T00:17:47.262Z,24
2015-04-27T00:18:05.671Z,24
2015-04-27T00:18:24.124Z,24
2015-04-27T00:18:42.515Z,24
2015-04-27T00:19:00.936Z,24
2015-04-27T00:19:19.517Z,24
2015-04-27T00:19:37.907Z,24
2015-04-27T00:19:56.126Z,24
2015-04-27T00:20:14.707Z,24
2015-04-27T00:20:33.223Z,24
2015-04-27T00:20:51.754Z,24
2015-04-27T00:21:10.473Z,24
2015-04-27T00:21:28.897Z,24
2015-04-27T00:21:47.647Z,23.9
2015-04-27T00:22:06.428Z,24
2015-04-27T00:22:25.009Z,23.9
2015-04-27T00:22:43.806Z,23.9
2015-04-27T00:23:02.196Z,23.9
2015-04-27T00:23:20.620Z,23.9
2015-04-27T00:23:39.433Z,23.9
2015-04-27T00:23:57.870Z,23.9
2015-04-27T00:24:16.511Z,23.9
2015-04-27T00:24:34.811Z,23.9
2015-04-27T00:24:53.295Z,23.9
2015-04-27T00:25:12.092Z,23.9
2015-04-27T00:25:30.735Z,23.9
2015-04-27T00:25:49.313Z,23.9
2015-04-27T00:26:07.766Z,23.9
2015-04-27T00:26:26.221Z,23.9
2015-04-27T00:26:44.659Z,23.9
2015-04-27T00:27:03.346Z,23.9
2015-04-27T00:27:21.815Z,23.9
2015-04-27T00:27:40.412Z,23.9
2015-04-27T00:27:58.849Z,23.9
2015-04-27T00:28:17.474Z,23.9
2015-04-27T00:28:36.007Z,23.9
2015-04-27T00:28:54.179Z,23.9
2015-04-27T00:29:12.929Z,23.9
2015-04-27T00:29:31.728Z,23.9
2015-04-27T00:29:50.494Z,23.9
2015-04-27T00:30:08.884Z,23.9
2015-04-27T00:30:27.419Z,23.9
2015-04-27T00:30:45.872Z,23.9
2015-04-27T00:31:04.387Z,23.9
2015-04-27T00:31:22.840Z,23.9
2015-04-27T00:31:41.702Z,23.9
2015-04-27T00:32:00.124Z,23.9
2015-04-27T00:32:18.514Z,23.9
2015-04-27T00:32:36.986Z,23.8
2015-04-27T00:32:55.517Z,23.8
2015-04-27T00:33:14.158Z,23.8
2015-04-27T00:33:33.017Z,23.8
2015-04-27T00:33:51.394Z,23.8
2015-04-27T00:34:10.160Z,23.8
2015-04-27T00:34:28.722Z,23.8
2015-04-27T00:34:47.257Z,23.8
2015-04-27T00:35:05.647Z,23.8
2015-04-27T00:35:24.210Z,23.8
2015-04-27T00:35:42.679Z,23.8
2015-04-27T00:36:01.165Z,23.8
2015-04-27T00:36:19.618Z,23.7
2015-04-27T00:36:38.056Z,23.7
2015-04-27T00:36:56.730Z,23.7
2015-04-27T00:37:15.246Z,23.7
2015-04-27T00:37:33.637Z,23.7
2015-04-27T00:37:52.230Z,23.7
2015-04-27T00:38:10.796Z,23.7
2015-04-27T00:38:29.187Z,23.8
2015-04-27T00:38:47.733Z,23.8
2015-04-27T00:39:06.204Z,23.8
2015-04-27T00:39:24.767Z,23.8
2015-04-27T00:39:43.204Z,23.8
2015-04-27T00:40:01.610Z,23.8
2015-04-27T00:40:20.175Z,23.8
2015-04-27T00:40:38.581Z,23.8
2015-04-27T00:40:56.987Z,23.8
2015-04-27T00:41:15.506Z,23.8
2015-04-27T00:41:34.022Z,23.8
2015-04-27T00:41:52.850Z,23.8
2015-04-27T00:42:11.365Z,23.8
2015-04-27T00:42:29.899Z,23.8
2015-04-27T00:42:48.446Z,23.8
2015-04-27T00:43:06.961Z,23.8
2015-04-27T00:43:25.511Z,23.8
2015-04-27T00:43:44.167Z,23.8
2015-04-27T00:44:02.683Z,23.8
2015-04-27T00:44:21.120Z,23.8
2015-04-27T00:44:39.810Z,23.8
2015-04-27T00:44:58.310Z,23.8
2015-04-27T00:45:17.044Z,23.8
2015-04-27T00:45:35.641Z,23.8
2015-04-27T00:45:54.125Z,23.8
2015-04-27T00:46:12.532Z,23.8
2015-04-27T00:46:31.016Z,23.8
2015-04-27T00:46:49.612Z,23.8
2015-04-27T00:47:08.268Z,23.8
2015-04-27T00:47:27.112Z,23.8
2015-04-27T00:47:45.505Z,23.8
2015-04-27T00:48:03.990Z,23.8
2015-04-27T00:48:22.380Z,23.8
2015-04-27T00:48:40.771Z,23.8
2015-04-27T00:48:59.648Z,23.8
2015-04-27T00:49:18.211Z,23.8
2015-04-27T00:49:36.851Z,23.8
2015-04-27T00:49:55.479Z,23.8
2015-04-27T00:50:14.120Z,23.8
2015-04-27T00:50:32.932Z,23.8
2015-04-27T00:50:51.323Z,23.8
2015-04-27T00:51:09.903Z,23.8
2015-04-27T00:51:28.700Z,23.8
2015-04-27T00:51:47.419Z,23.7
2015-04-27T00:52:06.014Z,23.8
2015-04-27T00:52:24.639Z,23.7
2015-04-27T00:52:43.264Z,23.7
2015-04-27T00:53:01.767Z,23.7
2015-04-27T00:53:20.283Z,23.7
2015-04-27T00:53:38.971Z,23.7
2015-04-27T00:53:57.611Z,23.7
2015-04-27T00:54:16.269Z,23.7
2015-04-27T00:54:34.926Z,23.7
2015-04-27T00:54:53.379Z,23.7
2015-04-27T00:55:12.209Z,23.7
2015-04-27T00:55:30.865Z,23.7
2015-04-27T00:55:49.600Z,23.6
2015-04-27T00:56:08.196Z,23.7
2015-04-27T00:56:26.821Z,23.6
2015-04-27T00:56:45.493Z,23.6
2015-04-27T00:57:03.962Z,23.6
2015-04-27T00:57:22.620Z,23.6
2015-04-27T00:57:40.995Z,23.6
2015-04-27T00:57:59.511Z,23.6
2015-04-27T00:58:18.217Z,23.6
2015-04-27T00:58:36.904Z,23.6
2015-04-27T00:58:55.561Z,23.6
2015-04-27T00:59:14.217Z,23.6
2015-04-27T00:59:33.125Z,23.6
2015-04-27T00:59:51.594Z,23.6
2015-04-27T01:00:10.110Z,23.6
2015-04-27T01:00:28.738Z,23.6
2015-04-27T01:00:47.425Z,23.6
2015-04-27T01:01:05.909Z,23.6
2015-04-27T01:01:24.503Z,23.6
2015-04-27T01:01:43.052Z,23.6
2015-04-27T01:02:01.677Z,23.6
2015-04-27T01:02:19.490Z,23.6
2015-04-27T01:02:38.539Z,23.6
2015-04-27T01:02:57.008Z,23.5
2015-04-27T01:03:15.508Z,23.5
2015-04-27T01:03:34.196Z,23.5
2015-04-27T01:03:52.745Z,23.5
2015-04-27T01:04:11.135Z,23.5
2015-04-27T01:04:29.604Z,23.5
2015-04-27T01:04:48.279Z,23.5
2015-04-27T01:05:07.310Z,23.5
2015-04-27T01:05:25.873Z,23.5
2015-04-27T01:05:44.482Z,23.5
2015-04-27T01:06:02.921Z,23.5
2015-04-27T01:06:21.453Z,23.5
2015-04-27T01:06:39.859Z,23.5
2015-04-27T01:06:58.346Z,23.5
2015-04-27T01:07:16.924Z,23.4
2015-04-27T01:07:35.503Z,23.4
2015-04-27T01:07:54.174Z,23.4
2015-04-27T01:08:12.614Z,23.4
2015-04-27T01:08:31.005Z,23.4
2015-04-27T01:08:49.567Z,23.4
2015-04-27T01:09:08.101Z,23.4
2015-04-27T01:09:26.523Z,23.4
2015-04-27T01:09:45.023Z,23.4
2015-04-27T01:10:03.586Z,23.4
2015-04-27T01:10:22.089Z,23.4
2015-04-27T01:10:40.698Z,23.4
2015-04-27T01:10:59.292Z,23.4
2015-04-27T01:11:17.809Z,23.4
2015-04-27T01:11:36.294Z,23.4
2015-04-27T01:11:54.809Z,23.4
2015-04-27T01:12:13.278Z,23.4
2015-04-27T01:12:31.827Z,23.4
2015-04-27T01:12:50.374Z,23.4
2015-04-27T01:13:08.921Z,23.4
2015-04-27T01:13:27.658Z,23.4
2015-04-27T01:13:46.439Z,23.3
2015-04-27T01:14:04.908Z,23.3
2015-04-27T01:14:23.689Z,23.3
2015-04-27T01:14:42.099Z,23.3
2015-04-27T01:15:00.896Z,23.3
2015-04-27T01:15:19.411Z,23.3
2015-04-27T01:15:38.023Z,23.3
2015-04-27T01:15:56.569Z,23.3
2015-04-27T01:16:15.101Z,23.3
2015-04-27T01:16:33.601Z,23.3
2015-04-27T01:16:52.291Z,23.3
2015-04-27T01:17:10.744Z,23.3
2015-04-27T01:17:29.354Z,23.3
2015-04-27T01:17:47.840Z,23.3
2015-04-27T01:18:06.418Z,23.3
2015-04-27T01:18:24.918Z,23.3
2015-04-27T01:18:43.512Z,23.3
2015-04-27T01:19:01.967Z,23.3
2015-04-27T01:19:20.436Z,23.3
2015-04-27T01:19:39.061Z,23.3
2015-04-27T01:19:57.626Z,23.3
2015-04-27T01:20:16.189Z,23.3
2015-04-27T01:20:35.064Z,23.3
2015-04-27T01:20:53.501Z,23.3
2015-04-27T01:21:11.972Z,23.3
2015-04-27T01:21:30.456Z,23.3
2015-04-27T01:21:49.128Z,23.3
2015-04-27T01:22:07.631Z,23.3
2015-04-27T01:22:26.334Z,23.3
2015-04-27T01:22:44.975Z,23.3
2015-04-27T01:23:03.600Z,23.3
2015-04-27T01:23:22.305Z,23.3
2015-04-27T01:23:40.821Z,23.3
2015-04-27T01:23:59.290Z,23.3
2015-04-27T01:24:17.918Z,23.3
2015-04-27T01:24:36.386Z,23.3
2015-04-27T01:24:54.777Z,23.2
2015-04-27T01:25:13.230Z,23.2
2015-04-27T01:25:31.764Z,23.2
2015-04-27T01:25:50.421Z,23.2
2015-04-27T01:26:09.046Z,23.2
2015-04-27T01:26:26.876Z,23.2
2015-04-27T01:26:45.657Z,23.2
2015-04-27T01:27:04.344Z,23.2
2015-04-27T01:27:22.829Z,23.2
2015-04-27T01:27:41.347Z,23.2
2015-04-27T01:27:59.972Z,23.2
2015-04-27T01:28:18.426Z,23.2
2015-04-27T01:28:36.818Z,23.2
2015-04-27T01:28:55.381Z,23.2
2015-04-27T01:29:14.099Z,23.2
2015-04-27T01:29:32.490Z,23.2
2015-04-27T01:29:51.087Z,23.2
2015-04-27T01:30:09.556Z,23.2
2015-04-27T01:30:28.118Z,23.2
2015-04-27T01:30:46.651Z,23.2
2015-04-27T01:31:05.167Z,23.2
2015-04-27T01:31:23.636Z,23.2
2015-04-27T01:31:42.292Z,23.1
2015-04-27T01:32:00.748Z,23.1
2015-04-27T01:32:19.139Z,23.1
2015-04-27T01:32:38.045Z,23.1
2015-04-27T01:32:56.906Z,23.1
2015-04-27T01:33:15.531Z,23.1
2015-04-27T01:33:34.188Z,23.1
2015-04-27T01:33:52.719Z,23.1
2015-04-27T01:34:11.455Z,23.1
2015-04-27T01:34:29.971Z,23.1
2015-04-27T01:34:48.768Z,23.1
2015-04-27T01:35:07.333Z,23.1
2015-04-27T01:35:25.880Z,23.1
2015-04-27T01:35:44.286Z,23.1
2015-04-27T01:36:02.976Z,23.1
2015-04-27T01:36:21.601Z,23.1
2015-04-27T01:36:40.148Z,23.1
2015-04-27T01:36:58.773Z,23.1
2015-04-27T01:37:17.384Z,23.1
2015-04-27T01:37:35.775Z,23.1
2015-04-27T01:37:54.181Z,23.1
2015-04-27T01:38:12.653Z,23.1
2015-04-27T01:38:31.106Z,23.1
2015-04-27T01:38:49.621Z,23.1
2015-04-27T01:39:08.012Z,23.1
2015-04-27T01:39:26.577Z,23.1
2015-04-27T01:39:45.092Z,23.1
2015-04-27T01:40:03.483Z,23.1
2015-04-27T01:40:22.501Z,23.1
2015-04-27T01:40:41.111Z,23.1
2015-04-27T01:40:59.705Z,23.1
2015-04-27T01:41:18.423Z,23.1
2015-04-27T01:41:37.019Z,23.1
2015-04-27T01:41:55.535Z,23.1
2015-04-27T01:42:13.972Z,23.1
2015-04-27T01:42:32.350Z,23.1
2015-04-27T01:42:51.038Z,23.1
2015-04-27T01:43:09.428Z,23.1
2015-04-27T01:43:28.178Z,23.1
2015-04-27T01:43:46.665Z,23.1
2015-04-27T01:44:05.633Z,23.1
2015-04-27T01:44:24.383Z,23
2015-04-27T01:44:42.949Z,23
2015-04-27T01:45:01.558Z,23
2015-04-27T01:45:20.215Z,23
2015-04-27T01:45:38.701Z,23
2015-04-27T01:45:57.326Z,23
2015-04-27T01:46:15.842Z,23
2015-04-27T01:46:34.310Z,23
2015-04-27T01:46:53.031Z,23
2015-04-27T01:47:11.734Z,23
2015-04-27T01:47:30.594Z,23
2015-04-27T01:47:49.018Z,23
2015-04-27T01:48:07.737Z,23
2015-04-27T01:48:26.362Z,23
2015-04-27T01:48:44.737Z,23
2015-04-27T01:49:03.521Z,23
2015-04-27T01:49:22.006Z,23
2015-04-27T01:49:40.537Z,23
2015-04-27T01:49:58.914Z,23
2015-04-27T01:50:17.383Z,23
2015-04-27T01:50:35.977Z,23
2015-04-27T01:50:54.492Z,23
2015-04-27T01:51:12.900Z,23
2015-04-27T01:51:31.385Z,23
2015-04-27T01:51:50.197Z,23
2015-04-27T01:52:09.216Z,23
2015-04-27T01:52:27.450Z,23
2015-04-27T01:52:46.263Z,23
2015-04-27T01:53:04.966Z,23
2015-04-27T01:53:23.734Z,23
2015-04-27T01:53:42.187Z,23
2015-04-27T01:54:00.843Z,23
2015-04-27T01:54:19.674Z,23
2015-04-27T01:54:39.283Z,23
2015-04-27T01:54:58.112Z,23
2015-04-27T01:55:16.768Z,23
2015-04-27T01:55:35.614Z,23
2015-04-27T01:55:54.457Z,23
2015-04-27T01:56:12.910Z,22.9
2015-04-27T01:56:31.382Z,22.9
2015-04-27T01:56:49.882Z,22.9
2015-04-27T01:57:08.648Z,22.9
2015-04-27T01:57:27.398Z,22.9
2015-04-27T01:57:45.854Z,22.9
2015-04-27T01:58:04.260Z,22.9
2015-04-27T01:58:22.713Z,22.9
2015-04-27T01:58:41.106Z,22.9
2015-04-27T01:58:59.497Z,22.9
2015-04-27T01:59:17.965Z,22.9
2015-04-27T01:59:37.059Z,22.9
2015-04-27T01:59:55.015Z,22.9
2015-04-27T02:00:13.609Z,22.9
2015-04-27T02:00:32.203Z,22.9
2015-04-27T02:00:50.673Z,22.9
2015-04-27T02:01:09.064Z,22.8
2015-04-27T02:01:27.580Z,22.8
2015-04-27T02:01:46.002Z,22.8
2015-04-27T02:02:04.692Z,22.8
2015-04-27T02:02:23.067Z,22.8
2015-04-27T02:02:41.458Z,22.8
2015-04-27T02:02:59.975Z,22.8
2015-04-27T02:03:18.632Z,22.8
2015-04-27T02:03:37.210Z,22.8
2015-04-27T02:03:55.757Z,22.8
2015-04-27T02:04:14.134Z,22.8
2015-04-27T02:04:33.009Z,22.8
2015-04-27T02:04:51.602Z,22.8
2015-04-27T02:05:10.199Z,22.8
2015-04-27T02:05:28.699Z,22.8
2015-04-27T02:05:47.121Z,22.8
2015-04-27T02:06:05.590Z,22.8
2015-04-27T02:06:24.545Z,22.8
2015-04-27T02:06:43.060Z,22.8
2015-04-27T02:07:02.060Z,22.8
2015-04-27T02:07:20.532Z,22.8
2015-04-27T02:07:38.938Z,22.8
2015-04-27T02:07:57.579Z,22.8
2015-04-27T02:08:16.079Z,22.8
2015-04-27T02:08:34.769Z,22.8
2015-04-27T02:08:53.831Z,22.8
2015-04-27T02:09:12.456Z,22.8
2015-04-27T02:09:30.851Z,22.8
2015-04-27T02:09:49.491Z,22.8
2015-04-27T02:10:07.898Z,22.8
2015-04-27T02:10:26.366Z,22.8
2015-04-27T02:10:44.899Z,22.7
2015-04-27T02:11:03.399Z,22.8
2015-04-27T02:11:21.883Z,22.8
2015-04-27T02:11:40.589Z,22.8
2015-04-27T02:11:59.120Z,22.8
2015-04-27T02:12:17.777Z,22.8
2015-04-27T02:12:36.480Z,22.8
2015-04-27T02:12:54.936Z,22.8
2015-04-27T02:13:13.780Z,22.8
2015-04-27T02:13:32.311Z,22.7
2015-04-27T02:13:50.937Z,22.8
2015-04-27T02:14:09.859Z,22.8
2015-04-27T02:14:28.296Z,22.7
2015-04-27T02:14:47.018Z,22.7
2015-04-27T02:15:05.784Z,22.8
2015-04-27T02:15:24.377Z,22.7
2015-04-27T02:15:42.987Z,22.7
2015-04-27T02:16:01.442Z,22.7
2015-04-27T02:16:19.989Z,22.7
2015-04-27T02:16:38.332Z,22.7
2015-04-27T02:16:56.790Z,22.7
2015-04-27T02:17:15.274Z,22.7
2015-04-27T02:17:33.821Z,22.7
2015-04-27T02:17:52.321Z,22.7
2015-04-27T02:18:10.698Z,22.7
2015-04-27T02:18:29.088Z,22.7
2015-04-27T02:18:47.495Z,22.7
2015-04-27T02:19:06.044Z,22.7
2015-04-27T02:19:24.450Z,22.7
2015-04-27T02:19:42.887Z,22.7
2015-04-27T02:20:01.512Z,22.7
2015-04-27T02:20:20.108Z,22.7
2015-04-27T02:20:38.780Z,22.7
2015-04-27T02:20:57.202Z,22.7
2015-04-27T02:21:15.845Z,22.7
2015-04-27T02:21:34.408Z,22.7
2015-04-27T02:21:52.970Z,22.7
2015-04-27T02:22:11.533Z,22.7
2015-04-27T02:22:29.989Z,22.7
2015-04-27T02:22:48.427Z,22.7
2015-04-27T02:23:07.020Z,22.7
2015-04-27T02:23:25.444Z,22.7
2015-04-27T02:23:43.960Z,22.7
2015-04-27T02:24:01.694Z,22.7
2015-04-27T02:24:20.304Z,22.7
2015-04-27T02:24:39.056Z,22.7
2015-04-27T02:24:57.477Z,22.7
2015-04-27T02:25:15.852Z,22.7
2015-04-27T02:25:34.543Z,22.7
2015-04-27T02:25:53.184Z,22.7
2015-04-27T02:26:11.793Z,22.7
2015-04-27T02:26:30.387Z,22.7
2015-04-27T02:26:48.998Z,22.7
2015-04-27T02:27:07.748Z,22.7
2015-04-27T02:27:26.514Z,22.7
2015-04-27T02:27:44.923Z,22.7
2015-04-27T02:28:03.501Z,22.7
2015-04-27T02:28:22.157Z,22.7
2015-04-27T02:28:40.673Z,22.7
2015-04-27T02:28:59.077Z,22.7
2015-04-27T02:29:17.873Z,22.7
2015-04-27T02:29:36.452Z,22.7
2015-04-27T02:29:55.007Z,22.7
2015-04-27T02:30:13.522Z,22.7
2015-04-27T02:30:32.022Z,22.7
2015-04-27T02:30:50.491Z,22.7
2015-04-27T02:31:08.905Z,22.7
2015-04-27T02:31:27.545Z,22.7
2015-04-27T02:31:46.045Z,22.7
2015-04-27T02:32:04.679Z,22.7
2015-04-27T02:32:23.194Z,22.7
2015-04-27T02:32:41.882Z,22.7
2015-04-27T02:33:00.460Z,22.7
2015-04-27T02:33:19.091Z,22.7
2015-04-27T02:33:37.701Z,22.7
2015-04-27T02:33:56.201Z,22.6
2015-04-27T02:34:14.869Z,22.7
2015-04-27T02:34:33.353Z,22.7
2015-04-27T02:34:51.744Z,22.7
2015-04-27T02:35:10.416Z,22.7
2015-04-27T02:35:28.988Z,22.6
2015-04-27T02:35:47.582Z,22.7
2015-04-27T02:36:06.113Z,22.6
2015-04-27T02:36:24.889Z,22.6
2015-04-27T02:36:43.342Z,22.6
2015-04-27T02:37:01.733Z,22.6
2015-04-27T02:37:20.545Z,22.6
2015-04-27T02:37:39.195Z,22.6
2015-04-27T02:37:57.601Z,22.7
2015-04-27T02:38:15.351Z,22.7
2015-04-27T02:38:33.751Z,22.7
2015-04-27T02:38:52.141Z,22.7
2015-04-27T02:39:10.766Z,22.7
2015-04-27T02:39:29.220Z,22.7
2015-04-27T02:39:48.022Z,22.6
2015-04-27T02:40:06.476Z,22.6
2015-04-27T02:40:24.929Z,22.6
2015-04-27T02:40:43.574Z,22.6
2015-04-27T02:41:01.996Z,22.6
2015-04-27T02:41:20.621Z,22.6
2015-04-27T02:41:39.199Z,22.6
2015-04-27T02:41:57.970Z,22.6
2015-04-27T02:42:16.720Z,22.6
2015-04-27T02:42:35.220Z,22.6
2015-04-27T02:42:53.663Z,22.6
2015-04-27T02:43:12.351Z,22.6
2015-04-27T02:43:31.070Z,22.6
2015-04-27T02:43:49.476Z,22.6
2015-04-27T02:44:08.230Z,22.6
2015-04-27T02:44:26.933Z,22.6
2015-04-27T02:44:45.636Z,22.6
2015-04-27T02:45:04.249Z,22.6
2015-04-27T02:45:22.827Z,22.6
2015-04-27T02:45:41.530Z,22.6
2015-04-27T02:46:00.127Z,22.6
2015-04-27T02:46:18.908Z,22.6
2015-04-27T02:46:37.423Z,22.6
2015-04-27T02:46:55.814Z,22.6
2015-04-27T02:47:14.459Z,22.6
2015-04-27T02:47:32.974Z,22.6
2015-04-27T02:47:51.490Z,22.6
2015-04-27T02:48:10.196Z,22.6
2015-04-27T02:48:28.618Z,22.6
2015-04-27T02:48:47.368Z,22.6
2015-04-27T02:49:05.852Z,22.6
2015-04-27T02:49:24.262Z,22.6
2015-04-27T02:49:43.168Z,22.6
2015-04-27T02:50:01.652Z,22.6
2015-04-27T02:50:20.061Z,22.6
2015-04-27T02:50:38.515Z,22.6
2015-04-27T02:50:57.296Z,22.6
2015-04-27T02:51:15.921Z,22.6
2015-04-27T02:51:34.579Z,22.6
2015-04-27T02:51:52.970Z,22.6
2015-04-27T02:52:11.563Z,22.6
2015-04-27T02:52:29.941Z,22.6
2015-04-27T02:52:48.910Z,22.6
2015-04-27T02:53:07.301Z,22.6
2015-04-27T02:53:25.738Z,22.6
2015-04-27T02:53:44.210Z,22.6
2015-04-27T02:54:02.757Z,22.6
2015-04-27T02:54:21.507Z,22.6
2015-04-27T02:54:40.244Z,22.6
2015-04-27T02:54:58.635Z,22.6
2015-04-27T02:55:17.166Z,22.6
2015-04-27T02:55:35.682Z,22.6
2015-04-27T02:55:54.387Z,22.6
2015-04-27T02:56:12.856Z,22.6
2015-04-27T02:56:31.371Z,22.6
2015-04-27T02:56:49.952Z,22.6
2015-04-27T02:57:08.343Z,22.6
2015-04-27T02:57:26.937Z,22.6
2015-04-27T02:57:45.390Z,22.6
2015-04-27T02:58:03.783Z,22.6
2015-04-27T02:58:22.329Z,22.6
2015-04-27T02:58:40.814Z,22.6
2015-04-27T02:58:59.286Z,22.6
2015-04-27T02:59:17.739Z,22.6
2015-04-27T02:59:36.317Z,22.6
2015-04-27T02:59:54.707Z,22.6
2015-04-27T03:00:13.084Z,22.6
2015-04-27T03:00:31.475Z,22.6
2015-04-27T03:00:50.069Z,22.6
2015-04-27T03:01:08.853Z,22.6
2015-04-27T03:01:27.244Z,22.6
2015-04-27T03:01:45.666Z,22.5
2015-04-27T03:02:04.072Z,22.5
2015-04-27T03:02:22.652Z,22.5
2015-04-27T03:02:41.043Z,22.5
2015-04-27T03:02:59.558Z,22.5
2015-04-27T03:03:18.046Z,22.5
2015-04-27T03:03:36.530Z,22.5
2015-04-27T03:03:55.046Z,22.5
2015-04-27T03:04:13.702Z,22.5
2015-04-27T03:04:32.251Z,22.5
2015-04-27T03:04:50.829Z,22.5
2015-04-27T03:05:09.563Z,22.5
2015-04-27T03:05:28.347Z,22.5
2015-04-27T03:05:46.941Z,22.5
2015-04-27T03:06:05.519Z,22.5
2015-04-27T03:06:24.394Z,22.4
2015-04-27T03:06:42.882Z,22.5
2015-04-27T03:07:01.444Z,22.4
2015-04-27T03:07:20.069Z,22.4
2015-04-27T03:07:38.727Z,22.4
2015-04-27T03:07:57.165Z,22.4
2015-04-27T03:08:15.696Z,22.4
2015-04-27T03:08:34.102Z,22.4
2015-04-27T03:08:52.730Z,22.4
2015-04-27T03:09:11.418Z,22.4
2015-04-27T03:09:29.840Z,22.4
2015-04-27T03:09:48.279Z,22.4
2015-04-27T03:10:06.732Z,22.4
2015-04-27T03:10:25.123Z,22.4
2015-04-27T03:10:43.592Z,22.4
2015-04-27T03:11:02.407Z,22.4
2015-04-27T03:11:20.829Z,22.4
2015-04-27T03:11:39.298Z,22.4
2015-04-27T03:11:57.862Z,22.4
2015-04-27T03:12:16.362Z,22.4
2015-04-27T03:12:34.784Z,22.4
2015-04-27T03:12:53.300Z,22.4
2015-04-27T03:13:11.755Z,22.4
2015-04-27T03:13:30.302Z,22.4
2015-04-27T03:13:48.958Z,22.4
2015-04-27T03:14:07.492Z,22.4
2015-04-27T03:14:25.883Z,22.4
2015-04-27T03:14:44.274Z,22.4
2015-04-27T03:15:02.649Z,22.4
2015-04-27T03:15:21.244Z,22.4
2015-04-27T03:15:39.776Z,22.4
2015-04-27T03:15:58.276Z,22.4
2015-04-27T03:16:16.856Z,22.4
2015-04-27T03:16:34.684Z,22.4
2015-04-27T03:16:53.262Z,22.4
2015-04-27T03:17:11.793Z,22.4
2015-04-27T03:17:30.203Z,22.3
2015-04-27T03:17:48.640Z,22.3
2015-04-27T03:18:07.234Z,22.3
2015-04-27T03:18:25.659Z,22.3
2015-04-27T03:18:44.112Z,22.3
2015-04-27T03:19:02.643Z,22.3
2015-04-27T03:19:21.049Z,22.3
2015-04-27T03:19:39.786Z,22.3
2015-04-27T03:19:58.176Z,22.3
2015-04-27T03:20:16.661Z,22.3
2015-04-27T03:20:35.069Z,22.3
2015-04-27T03:20:53.694Z,22.3
2015-04-27T03:21:12.116Z,22.3
2015-04-27T03:21:30.772Z,22.3
2015-04-27T03:21:49.181Z,22.3
2015-04-27T03:22:07.697Z,22.3
2015-04-27T03:22:26.447Z,22.3
2015-04-27T03:22:45.106Z,22.3
2015-04-27T03:23:03.794Z,22.3
2015-04-27T03:23:22.216Z,22.3
2015-04-27T03:23:40.700Z,22.3
2015-04-27T03:23:59.280Z,22.3
2015-04-27T03:24:17.968Z,22.3
2015-04-27T03:24:36.561Z,22.3
2015-04-27T03:24:55.049Z,22.3
2015-04-27T03:25:13.486Z,22.3
2015-04-27T03:25:32.174Z,22.3
2015-04-27T03:25:50.658Z,22.3
2015-04-27T03:26:09.207Z,22.3
2015-04-27T03:26:28.113Z,22.3
2015-04-27T03:26:46.519Z,22.3
2015-04-27T03:27:04.912Z,22.3
2015-04-27T03:27:23.428Z,22.3
2015-04-27T03:27:41.943Z,22.3
2015-04-27T03:28:00.709Z,22.3
2015-04-27T03:28:19.306Z,22.2
2015-04-27T03:28:37.728Z,22.3
2015-04-27T03:28:56.228Z,22.3
2015-04-27T03:29:14.731Z,22.2
2015-04-27T03:29:33.356Z,22.2
2015-04-27T03:29:52.012Z,22.2
2015-04-27T03:30:10.590Z,22.2
2015-04-27T03:30:29.139Z,22.3
2015-04-27T03:30:47.904Z,22.2
2015-04-27T03:31:06.420Z,22.3
2015-04-27T03:31:25.031Z,22.2
2015-04-27T03:31:43.453Z,22.3
2015-04-27T03:32:01.891Z,22.2
2015-04-27T03:32:20.531Z,22.2
2015-04-27T03:32:39.159Z,22.2
2015-04-27T03:32:57.628Z,22.2
2015-04-27T03:33:16.238Z,22.2
2015-04-27T03:33:34.834Z,22.2
2015-04-27T03:33:53.537Z,22.2
2015-04-27T03:34:12.100Z,22.2
2015-04-27T03:34:30.928Z,22.2
2015-04-27T03:34:49.461Z,22.2
2015-04-27T03:35:07.868Z,22.2
2015-04-27T03:35:26.461Z,22.2
2015-04-27T03:35:44.854Z,22.2
2015-04-27T03:36:03.463Z,22.2
2015-04-27T03:36:21.916Z,22.2
2015-04-27T03:36:40.401Z,22.2
2015-04-27T03:36:58.966Z,22.2
2015-04-27T03:37:17.357Z,22.2
2015-04-27T03:37:35.904Z,22.2
2015-04-27T03:37:54.485Z,22.2
2015-04-27T03:38:13.235Z,22.2
2015-04-27T03:38:31.719Z,22.2
2015-04-27T03:38:50.297Z,22.2
2015-04-27T03:39:08.940Z,22.2
2015-04-27T03:39:27.596Z,22.1
2015-04-27T03:39:46.471Z,22.1
2015-04-27T03:40:05.083Z,22.1
2015-04-27T03:40:23.692Z,22.1
2015-04-27T03:40:42.301Z,22.1
2015-04-27T03:41:00.694Z,22.1
2015-04-27T03:41:19.194Z,22.1
2015-04-27T03:41:37.757Z,22.1
2015-04-27T03:41:56.272Z,22.1
2015-04-27T03:42:14.760Z,22.1
2015-04-27T03:42:33.431Z,22.1
2015-04-27T03:42:51.822Z,22.1
2015-04-27T03:43:10.341Z,22.1
2015-04-27T03:43:28.841Z,22.1
2015-04-27T03:43:47.606Z,22.1
2015-04-27T03:44:06.309Z,22.1
2015-04-27T03:44:25.093Z,22.1
2015-04-27T03:44:43.608Z,22.1
2015-04-27T03:45:02.405Z,22.1
2015-04-27T03:45:20.954Z,22.1
2015-04-27T03:45:39.501Z,22.1
2015-04-27T03:45:57.985Z,22.1
2015-04-27T03:46:16.629Z,22.1
2015-04-27T03:46:35.020Z,22.2
2015-04-27T03:46:53.473Z,22.1
2015-04-27T03:47:12.176Z,22.2
2015-04-27T03:47:30.943Z,22.1
2015-04-27T03:47:49.678Z,22.2
2015-04-27T03:48:08.600Z,22.2
2015-04-27T03:48:27.055Z,22.2
2015-04-27T03:48:45.570Z,22.1
2015-04-27T03:49:04.086Z,22.2
2015-04-27T03:49:22.477Z,22.1
2015-04-27T03:49:40.949Z,22.1
2015-04-27T03:49:59.434Z,22.1
2015-04-27T03:50:17.903Z,22.1
2015-04-27T03:50:36.342Z,22.2
2015-04-27T03:50:54.920Z,22.2
2015-04-27T03:51:13.623Z,22.2
2015-04-27T03:51:32.295Z,22.2
2015-04-27T03:51:50.782Z,22.2
2015-04-27T03:52:09.157Z,22.2
2015-04-27T03:52:27.828Z,22.2
2015-04-27T03:52:46.222Z,22.2
2015-04-27T03:53:04.628Z,22.2
2015-04-27T03:53:23.097Z,22.2
2015-04-27T03:53:41.722Z,22.2
2015-04-27T03:54:00.162Z,22.2
2015-04-27T03:54:18.958Z,22.2
2015-04-27T03:54:37.271Z,22.2
2015-04-27T03:54:55.961Z,22.2
2015-04-27T03:55:14.524Z,22.2
2015-04-27T03:55:32.930Z,22.2
2015-04-27T03:55:51.883Z,22.2
2015-04-27T03:56:10.510Z,22.2
2015-04-27T03:56:28.932Z,22.1
2015-04-27T03:56:47.667Z,22.1
2015-04-27T03:57:06.060Z,22.1
2015-04-27T03:57:24.545Z,22.1
2015-04-27T03:57:42.998Z,22.1
2015-04-27T03:58:01.420Z,22.1
2015-04-27T03:58:20.125Z,22.1
2015-04-27T03:58:38.797Z,22.1
2015-04-27T03:58:57.453Z,22.1
2015-04-27T03:59:15.846Z,22.1
2015-04-27T03:59:34.487Z,22.2
2015-04-27T03:59:53.018Z,22.2
2015-04-27T04:00:11.503Z,22.1
2015-04-27T04:00:30.224Z,22.2
2015-04-27T04:00:47.990Z,22.2
2015-04-27T04:01:06.615Z,22.2
2015-04-27T04:01:25.383Z,22.2
2015-04-27T04:01:43.930Z,22.1
2015-04-27T04:02:02.320Z,22.2
2015-04-27T04:02:20.726Z,22.1
2015-04-27T04:02:39.135Z,22.1
2015-04-27T04:02:57.603Z,22.1
2015-04-27T04:03:16.072Z,22.1
2015-04-27T04:03:34.668Z,22.1
2015-04-27T04:03:53.043Z,22.1
2015-04-27T04:04:11.621Z,22.1
2015-04-27T04:04:30.168Z,22.1
2015-04-27T04:04:48.858Z,22.1
2015-04-27T04:05:07.265Z,22.1
2015-04-27T04:05:25.765Z,22.1
2015-04-27T04:05:44.298Z,22.1
2015-04-27T04:06:02.704Z,22.1
2015-04-27T04:06:21.157Z,22.1
2015-04-27T04:06:39.751Z,22.1
2015-04-27T04:06:58.145Z,22.1
2015-04-27T04:07:16.629Z,22.1
2015-04-27T04:07:35.270Z,22.1
2015-04-27T04:07:53.835Z,22.1
2015-04-27T04:08:12.304Z,22.1